Aérodrome :
LOGIN :

S'inscrire | Disclaimer

   EN    FR    IT 

 










Légende :    VFR   VFR Marginal   IFR   IFR Intensif   IFR Très Intensif
Visi : 
Plafond : 
>= 8 km
>= 3000ft
5 à 8 km
1000 à 3000 ft
1500m à 5 km
500 à 1000 ft
800 à 1500m
200 à 500 ft
< 800m
< 200 ft
Symboles :   Orages  Brouillard  Fortes neiges  Fortes précipitations  Vent > 20 kt
SIGMETs :   Divers  Orages  Givrage  Turbulence  Onde Orograph.  Cendres Volcan.






- Altitude de l'aérodrome : 325 ft
- Code IATA : BES


LFRB - Brest

DERNIER METAR :
  • 190430Z AUTO 16007KT 9999 FEW043 BKN240 05/04 Q1015 NOSIG

METARs EXPIRÉS :
  • 190400Z AUTO 14006KT 9999 FEW020 BKN043 05/04 Q1016 NOSIG
  • 190330Z AUTO 15008KT 9999 FEW020 BKN040 05/04 Q1016 NOSIG
  • 190300Z AUTO 14009KT 9999 FEW021 SCT027 BKN043 05/04 Q1016 NOSIG
  • 190230Z AUTO 14005KT 9999 BKN022 BKN029 BKN041 05/04 Q1016 NOSIG
  • 190200Z AUTO 14007KT 9999 FEW024 SCT041 04/03 Q1017 NOSIG

TAF TAF LFRB
Valide du 19 à 00h jusqu'au 20 à 06h UTC


182300Z 1900/2006 16008KT CAVOK
BECMG 1917/1919 17015G25KT 4000 RA SCT008 OVC015
TEMPO 1921/2006 BKN006
ATIS : +33 2 98 32 02 71



MET'MAP, la Météo Aéronautique d'un coup d'oeil ! - Copyright ORBIFLY Décembre 2007 - Disclaimer

ORBIFLY MET'MAP TEAM :

Programmation & Développement : Alexandra Zaïnal
Conception & Développement : Baudouin d'Aumeries
Co-Programmation & Développement : Marc-Olivier Méhu
Soutien technique & logistique : Manuel Goepfert

Contact : metmap@orbifly.com




SOURCES & CREDITS :

   NOAA